Time;durP1;ratioP1;P1;durP2;ratioP2;P2;SDS_P1;SDS_P2;PMS_P1;PMS_P2;Temp;Humidity;BMP_temperature;BMP_pressure;BME280_temperature;BME280_humidity;BME280_pressure;Samples;Min_cycle;Max_cycle;Signal;HPM_P1;HPM_P2
2022/09/08 00:00:41;;;;;;;;;3.50;3.50;;;;;20.46;65.28;100883.97;5094105;28;8825;-67
2022/09/08 00:03:15;;;;;;;;;1.50;1.50;;;;;20.44;65.45;100872.44;5094143;28;8829;-67
2022/09/08 00:06:03;;;;;;;;;3.50;2.25;;;;;20.44;65.21;100861.50;5079832;28;8913;-67
2022/09/08 00:08:30;;;;;;;;;2.00;2.00;;;;;20.42;65.29;100864.53;5073563;28;8815;-67
2022/09/08 00:11:01;;;;;;;;;1.25;1.25;;;;;20.41;65.08;100862.03;5073898;28;8842;-67
2022/09/08 00:13:32;;;;;;;;;4.00;3.25;;;;;20.38;64.84;100851.63;5073889;28;8816;-67
2022/09/08 00:16:02;;;;;;;;;2.00;2.00;;;;;20.31;65.10;100861.94;5089064;28;9607;-66
2022/09/08 00:18:36;;;;;;;;;3.00;2.00;;;;;20.30;65.08;100869.31;5093430;28;8816;-66
2022/09/08 00:21:03;;;;;;;;;3.00;3.00;;;;;20.32;65.21;100860.84;5093740;28;8855;-67
2022/09/08 00:23:29;;;;;;;;;3.50;2.50;;;;;20.30;65.39;100850.19;5092406;28;8825;-67
2022/09/08 00:25:56;;;;;;;;;4.00;4.00;;;;;20.27;65.57;100836.22;5077728;28;8817;-67
2022/09/08 00:28:23;;;;;;;;;4.00;4.00;;;;;20.27;65.75;100838.94;5073242;28;9558;-67
2022/09/08 00:30:54;;;;;;;;;4.00;3.00;;;;;20.22;65.82;100826.88;5073408;28;8825;-66
2022/09/08 00:33:21;;;;;;;;;4.25;4.00;;;;;20.22;66.09;100826.06;5073512;28;8898;-67
2022/09/08 00:35:48;;;;;;;;;4.00;4.00;;;;;20.20;65.75;100831.75;5076396;28;8853;-66
2022/09/08 00:38:15;;;;;;;;;2.50;2.00;;;;;20.14;66.04;100835.53;5073550;28;8823;-66
2022/09/08 00:40:47;;;;;;;;;3.00;3.00;;;;;20.12;65.56;100823.19;5073407;28;8872;-66
2022/09/08 00:43:30;;;;;;;;;2.00;2.00;;;;;20.10;65.59;100828.13;5072033;28;8853;-67
2022/09/08 00:46:04;;;;;;;;;3.00;2.25;;;;;20.06;65.13;100829.72;5073234;28;8856;-66
2022/09/08 00:48:31;;;;;;;;;2.25;2.25;;;;;19.94;64.71;100818.94;5073070;28;8920;-66
2022/09/08 00:50:59;;;;;;;;;4.00;2.25;;;;;19.94;64.89;100813.47;5084947;28;9545;-66
2022/09/08 00:53:26;;;;;;;;;1.00;1.00;;;;;19.92;64.12;100810.97;5075607;28;8827;-66
2022/09/08 00:55:54;;;;;;;;;1.00;1.00;;;;;19.87;63.60;100810.09;5073121;28;8893;-67
2022/09/08 00:58:20;;;;;;;;;3.00;1.25;;;;;19.85;63.97;100815.00;5087961;28;8893;-66
2022/09/08 01:00:47;;;;;;;;;4.25;1.00;;;;;19.91;63.80;100808.50;5072443;28;9526;-66
2022/09/08 01:03:17;;;;;;;;;1.00;1.00;;;;;19.98;63.60;100820.06;5072944;28;8832;-66
2022/09/08 01:06:01;;;;;;;;;1.00;1.00;;;;;20.00;62.91;100804.22;5072692;28;8959;-66
2022/09/08 01:14:56;;;;;;;;;0.75;0.25;;;;;19.90;62.40;100802.22;5084564;28;8867;-66
2022/09/08 01:17:26;;;;;;;;;1.00;0.00;;;;;19.93;62.26;100789.94;5092553;28;8820;-66
2022/09/08 01:19:54;;;;;;;;;1.00;1.00;;;;;19.98;62.31;100788.09;5090225;28;8851;-66
2022/09/08 01:22:55;;;;;;;;;1.25;1.25;;;;;19.99;62.37;100787.00;5092644;28;8824;-66
2022/09/08 01:25:54;;;;;;;;;1.00;1.00;;;;;20.06;62.59;100770.41;5092553;28;8879;-66
2022/09/08 01:28:46;;;;;;;;;0.00;0.00;;;;;20.12;62.54;100774.84;5092519;28;8816;-67
2022/09/08 01:31:13;;;;;;;;;0.00;0.00;;;;;20.16;62.71;100773.22;5078360;28;8825;-66
2022/09/08 01:33:41;;;;;;;;;1.00;1.00;;;;;20.18;62.82;100779.28;5072113;28;8862;-67
2022/09/08 01:36:13;;;;;;;;;1.00;1.00;;;;;20.20;63.01;100781.75;5072798;28;8830;-66
2022/09/08 01:38:40;;;;;;;;;0.75;0.75;;;;;20.21;63.20;100775.19;5072166;28;8811;-67
2022/09/08 01:41:07;;;;;;;;;0.00;0.00;;;;;20.22;63.34;100782.31;5086840;28;9533;-66
2022/09/08 01:43:33;;;;;;;;;0.50;0.50;;;;;20.23;63.47;100779.31;5071947;28;8830;-66
2022/09/08 01:46:00;;;;;;;;;0.50;0.50;;;;;20.24;63.77;100786.44;5071874;28;8827;-66
2022/09/08 01:48:26;;;;;;;;;0.00;0.00;;;;;20.23;64.20;100792.97;5071763;28;8811;-67
2022/09/08 01:50:59;;;;;;;;;2.50;1.00;;;;;20.22;64.73;100788.59;5085247;28;8829;-67
2022/09/08 01:53:26;;;;;;;;;2.75;2.75;;;;;20.20;65.27;100798.97;5092098;28;9533;-66
2022/09/08 01:55:53;;;;;;;;;1.25;1.25;;;;;20.18;65.77;100806.59;5091853;28;8817;-67
2022/09/08 01:58:19;;;;;;;;;3.00;3.00;;;;;20.15;66.15;100803.56;5091633;28;8833;-66
2022/09/08 02:00:46;;;;;;;;;3.00;3.00;;;;;20.16;66.45;100806.03;5090361;28;8887;-66
2022/09/08 02:03:12;;;;;;;;;4.00;3.00;;;;;20.13;66.23;100803.81;5091879;28;8841;-67
2022/09/08 02:05:40;;;;;;;;;4.75;3.75;;;;;20.08;66.02;100803.75;5091537;28;8852;-67
2022/09/08 02:08:08;;;;;;;;;7.00;6.25;;;;;20.02;66.20;100793.88;5091450;28;8821;-66
2022/09/08 02:10:34;;;;;;;;;7.50;6.75;;;;;19.97;66.75;100800.13;5079331;28;8824;-67
2022/09/08 02:13:02;;;;;;;;;13.00;9.50;;;;;19.93;67.30;100803.59;5071170;28;8825;-66
2022/09/08 02:15:29;;;;;;;;;8.00;5.00;;;;;19.93;67.93;100807.19;5071302;28;8849;-64
2022/09/08 02:17:57;;;;;;;;;10.25;6.25;;;;;19.91;67.97;100803.88;5071184;28;8801;-65
2022/09/08 02:20:24;;;;;;;;;8.75;6.25;;;;;19.77;69.05;100802.63;5080322;28;8816;-65
2022/09/08 02:22:54;;;;;;;;;8.00;6.75;;;;;19.73;69.32;100806.97;5091648;28;8836;-64
2022/09/08 02:25:22;;;;;;;;;6.50;6.50;;;;;19.71;69.88;100796.28;5090171;28;8829;-65
2022/09/08 02:27:52;;;;;;;;;6.50;6.50;;;;;19.68;70.13;100788.59;5090989;28;8930;-65
2022/09/08 02:30:20;;;;;;;;;5.75;4.75;;;;;19.63;70.23;100780.34;5080387;28;8821;-65
2022/09/08 02:32:46;;;;;;;;;4.00;4.00;;;;;19.62;70.27;100778.69;5071339;28;8931;-65
2022/09/08 02:35:13;;;;;;;;;5.00;4.00;;;;;19.61;70.27;100777.06;5071157;28;8813;-66
2022/09/08 02:37:39;;;;;;;;;3.75;3.00;;;;;19.59;70.46;100767.44;5070540;28;8824;-65
2022/09/08 02:40:07;;;;;;;;;3.25;3.00;;;;;19.58;70.42;100763.06;5071371;28;8838;-66
2022/09/08 02:42:33;;;;;;;;;3.50;3.50;;;;;19.57;70.79;100764.13;5070923;28;8803;-65
2022/09/08 02:45:00;;;;;;;;;3.00;2.75;;;;;19.58;70.79;100766.59;5070795;28;8838;-66
2022/09/08 02:47:26;;;;;;;;;4.75;3.00;;;;;19.57;70.72;100762.25;5070319;28;9592;-64
2022/09/08 02:49:52;;;;;;;;;4.50;4.00;;;;;19.56;70.92;100760.56;5071122;28;9583;-65
2022/09/08 02:52:19;;;;;;;;;4.00;3.00;;;;;19.57;70.95;100755.94;5071154;28;8828;-65
2022/09/08 02:54:46;;;;;;;;;4.00;2.75;;;;;19.56;70.79;100757.84;5070795;28;8843;-64
2022/09/08 02:57:12;;;;;;;;;3.75;3.75;;;;;19.54;70.89;100757.28;5070514;28;8820;-67
2022/09/08 02:59:38;;;;;;;;;5.75;3.00;;;;;19.54;71.00;100762.75;5088185;28;8851;-66
2022/09/08 03:02:05;;;;;;;;;3.25;3.25;;;;;19.53;70.81;100777.47;5090855;28;8833;-66
2022/09/08 03:04:31;;;;;;;;;3.75;3.75;;;;;19.48;70.71;100772.75;5090641;28;8828;-67
2022/09/08 03:06:58;;;;;;;;;2.00;2.00;;;;;19.46;70.94;100774.13;5090619;28;8840;-67
2022/09/08 03:09:24;;;;;;;;;2.00;2.00;;;;;19.43;70.69;100771.88;5071318;28;8820;-66
2022/09/08 03:11:51;;;;;;;;;2.00;2.00;;;;;19.41;71.01;100765.88;5070334;28;8832;-67
2022/09/08 03:14:17;;;;;;;;;2.75;2.75;;;;;19.38;70.83;100767.19;5070374;28;8809;-67
2022/09/08 03:16:45;;;;;;;;;2.00;2.00;;;;;19.33;70.98;100766.31;5070076;28;8902;-67
2022/09/08 03:19:12;;;;;;;;;2.25;2.25;;;;;19.29;70.88;100755.09;5070575;28;8840;-66
2022/09/08 03:21:38;;;;;;;;;4.00;3.00;;;;;19.26;71.34;100753.66;5070217;28;8860;-66
2022/09/08 03:24:05;;;;;;;;;2.25;2.25;;;;;19.25;70.94;100749.31;5070110;28;8821;-67
2022/09/08 03:26:31;;;;;;;;;3.00;3.00;;;;;19.21;71.49;100748.16;5070038;28;8813;-66
2022/09/08 03:28:57;;;;;;;;;4.25;4.25;;;;;19.22;71.57;100747.06;5069475;28;8815;-67
2022/09/08 03:31:24;;;;;;;;;5.00;2.75;;;;;19.24;71.77;100746.81;5070232;28;9584;-67
2022/09/08 03:33:50;;;;;;;;;3.00;3.00;;;;;19.25;71.89;100740.28;5070077;28;8827;-67
2022/09/08 03:36:17;;;;;;;;;5.00;5.00;;;;;19.24;71.83;100742.19;5069775;28;8825;-66
2022/09/08 03:38:45;;;;;;;;;3.50;3.50;;;;;19.25;71.78;100745.75;5069633;28;8840;-67
2022/09/08 03:41:13;;;;;;;;;6.00;5.50;;;;;19.24;71.97;100724.97;5069945;28;8832;-67
2022/09/08 03:43:45;;;;;;;;;3.50;3.50;;;;;19.26;71.89;100720.91;5069898;28;8849;-67
2022/09/08 03:46:13;;;;;;;;;7.00;5.50;;;;;19.27;71.76;100725.28;5071769;28;8827;-66
2022/09/08 03:48:39;;;;;;;;;4.75;4.75;;;;;19.27;71.66;100728.03;5082275;28;8867;-66
2022/09/08 03:51:25;;;;;;;;;9.75;9.75;;;;;19.25;71.95;100730.19;5069989;28;8825;-66
2022/09/08 03:56:43;;;;;;;;;5.75;5.75;;;;;19.24;72.11;100723.09;5069827;28;8825;-67
2022/09/08 03:59:09;;;;;;;;;7.25;7.25;;;;;19.25;71.99;100730.19;5074395;28;8844;-67
2022/09/08 04:01:36;;;;;;;;;7.50;6.25;;;;;19.25;72.02;100724.75;5090650;28;8836;-67
2022/09/08 04:04:03;;;;;;;;;9.50;9.50;;;;;19.22;72.07;100718.97;5089867;28;8825;-66
2022/09/08 04:06:30;;;;;;;;;8.50;8.50;;;;;19.21;71.86;100723.59;5090104;28;8941;-67
2022/09/08 04:08:57;;;;;;;;;10.75;8.50;;;;;19.18;72.05;100726.81;5090825;28;8824;-66
2022/09/08 04:11:23;;;;;;;;;10.75;9.75;;;;;19.16;72.18;100731.72;5080813;28;8828;-67
2022/09/08 04:13:53;;;;;;;;;13.00;11.00;;;;;19.16;72.05;100728.16;5070122;28;8809;-67
2022/09/08 04:16:19;;;;;;;;;10.00;10.00;;;;;19.16;71.98;100729.00;5069071;28;8926;-67
2022/09/08 04:18:47;;;;;;;;;9.75;9.75;;;;;19.15;72.29;100726.50;5070218;28;8809;-67
2022/09/08 04:21:13;;;;;;;;;9.75;9.50;;;;;19.15;72.48;100721.88;5070390;28;8832;-68
2022/09/08 04:23:40;;;;;;;;;11.50;8.50;;;;;19.14;72.46;100714.78;5070100;28;8821;-67
2022/09/08 04:26:11;;;;;;;;;14.00;13.67;;;;;19.13;72.40;100725.94;5069999;28;8836;-67
2022/09/08 04:28:39;;;;;;;;;13.00;12.00;;;;;19.12;72.44;100724.28;5069884;28;8973;-67
2022/09/08 04:31:09;;;;;;;;;11.75;11.50;;;;;19.11;72.80;100717.19;5070120;28;8830;-67
2022/09/08 04:33:36;;;;;;;;;11.50;9.50;;;;;19.10;72.63;100719.09;5070874;28;8827;-67
2022/09/08 04:36:12;;;;;;;;;9.00;8.25;;;;;19.08;72.49;100729.44;5073377;28;8959;-67
2022/09/08 04:38:53;;;;;;;;;12.00;12.00;;;;;19.00;72.68;100719.78;5076910;28;8825;-67
2022/09/08 04:41:19;;;;;;;;;10.75;9.25;;;;;18.94;72.74;100725.44;5094013;28;8981;-67
2022/09/08 04:43:46;;;;;;;;;12.50;12.50;;;;;18.88;72.59;100723.69;5094261;28;8833;-67
2022/09/08 04:46:15;;;;;;;;;10.25;9.25;;;;;18.81;72.51;100723.91;5094086;28;8935;-68
2022/09/08 04:48:43;;;;;;;;;7.75;7.00;;;;;18.76;72.80;100716.47;5093538;28;8817;-66
2022/09/08 04:51:15;;;;;;;;;12.50;9.75;;;;;18.74;72.92;100717.78;5094007;28;8875;-66
2022/09/08 04:53:43;;;;;;;;;9.25;7.00;;;;;18.71;72.97;100715.56;5080746;28;8857;-67
2022/09/08 04:56:10;;;;;;;;;7.25;7.00;;;;;18.70;73.02;100705.72;5072961;28;9589;-67
2022/09/08 04:58:39;;;;;;;;;5.50;5.50;;;;;18.75;73.28;100708.53;5072722;28;8834;-67
2022/09/08 05:01:08;;;;;;;;;7.00;6.00;;;;;18.73;73.16;100711.50;5072958;28;8835;-66
2022/09/08 05:03:36;;;;;;;;;7.25;6.25;;;;;18.73;73.43;100711.50;5072717;28;8911;-67
2022/09/08 05:06:09;;;;;;;;;5.00;5.00;;;;;18.72;73.46;100711.78;5072602;28;8834;-68
2022/09/08 05:08:35;;;;;;;;;4.50;4.50;;;;;18.72;73.74;100711.78;5072209;28;8815;-67
2022/09/08 05:11:02;;;;;;;;;6.00;6.00;;;;;18.69;73.47;100710.34;5072783;28;8831;-66
2022/09/08 05:13:29;;;;;;;;;4.50;4.50;;;;;18.69;73.68;100707.59;5087958;28;8842;-66
2022/09/08 05:16:06;;;;;;;;;8.00;5.25;;;;;18.69;73.86;100717.69;5104883;28;8846;-67
2022/09/08 05:18:34;;;;;;;;;4.25;4.25;;;;;18.69;74.07;100713.06;5071972;28;8850;-66
2022/09/08 05:21:01;;;;;;;;;2.75;2.50;;;;;18.68;73.89;100718.78;5072126;28;8842;-66
2022/09/08 05:23:28;;;;;;;;;6.25;6.25;;;;;18.68;73.85;100713.31;5072226;28;8803;-66
2022/09/08 05:26:03;;;;;;;;;6.00;5.25;;;;;18.67;73.83;100717.94;5072307;28;8856;-65
2022/09/08 05:28:32;;;;;;;;;4.00;4.00;;;;;18.66;74.05;100710.81;5070545;28;8843;-67
2022/09/08 05:31:02;;;;;;;;;3.50;3.50;;;;;18.68;74.30;100714.16;5088958;28;8851;-66
2022/09/08 05:33:30;;;;;;;;;5.75;4.25;;;;;18.67;74.16;100712.47;5092327;28;8820;-69
2022/09/08 05:35:56;;;;;;;;;2.75;2.50;;;;;18.68;74.49;100711.41;5092600;28;8824;-66
2022/09/08 05:38:23;;;;;;;;;5.75;5.00;;;;;18.64;74.07;100704.81;5090733;28;8824;-67
2022/09/08 05:40:50;;;;;;;;;5.00;3.75;;;;;18.64;74.28;100704.00;5091154;28;9667;-67
2022/09/08 05:43:18;;;;;;;;;3.25;3.25;;;;;18.63;74.30;100710.50;5090550;28;8820;-66
2022/09/08 05:45:49;;;;;;;;;5.50;5.50;;;;;18.62;74.41;100711.59;5090925;28;8824;-66
2022/09/08 05:48:16;;;;;;;;;4.50;4.50;;;;;18.60;74.39;100711.03;5091867;28;8823;-67
2022/09/08 05:50:44;;;;;;;;;5.25;5.00;;;;;18.56;74.29;100713.44;5090820;28;8809;-67
2022/09/08 05:53:12;;;;;;;;;3.75;3.75;;;;;18.55;74.46;100709.03;5092023;28;8832;-65
2022/09/08 05:55:55;;;;;;;;;8.25;6.25;;;;;18.52;74.39;100710.38;5091752;28;9588;-67
2022/09/08 05:58:21;;;;;;;;;6.25;6.25;;;;;18.53;74.83;100716.66;5089237;28;8983;-66
2022/09/08 06:00:55;;;;;;;;;9.00;6.25;;;;;18.55;74.63;100728.09;5071569;28;8847;-68
2022/09/08 06:03:22;;;;;;;;;6.50;6.00;;;;;18.54;74.80;100729.19;5071675;28;8962;-67
2022/09/08 06:05:48;;;;;;;;;7.50;7.00;;;;;18.52;74.67;100732.19;5071838;28;8902;-67
2022/09/08 06:08:16;;;;;;;;;7.50;7.00;;;;;18.50;74.62;100733.50;5071026;28;8823;-66
2022/09/08 06:10:42;;;;;;;;;6.00;5.00;;;;;18.48;74.78;100728.31;5071140;28;8848;-66
2022/09/08 06:13:13;;;;;;;;;4.50;3.50;;;;;18.49;75.08;100735.41;5078692;28;8835;-67
2022/09/08 06:15:40;;;;;;;;;6.00;4.00;;;;;18.50;74.96;100734.31;5071050;28;8920;-66
2022/09/08 06:18:06;;;;;;;;;5.50;5.50;;;;;18.50;75.07;100742.50;5070770;28;8827;-66
2022/09/08 06:20:33;;;;;;;;;8.00;8.00;;;;;18.49;75.07;100734.56;5071357;28;9560;-66
2022/09/08 06:22:59;;;;;;;;;4.25;4.00;;;;;18.47;75.08;100737.56;5070993;28;8851;-66
2022/09/08 06:25:26;;;;;;;;;6.25;5.75;;;;;18.44;75.03;100731.78;5070349;28;8823;-66
2022/09/08 06:28:07;;;;;;;;;3.75;3.75;;;;;18.47;75.00;100731.25;5068846;28;8827;-67
2022/09/08 06:30:33;;;;;;;;;5.50;5.50;;;;;18.47;75.08;100736.72;5078980;28;8919;-66
2022/09/08 06:33:29;;;;;;;;;6.50;6.50;;;;;18.45;75.17;100749.78;5091191;28;8836;-66
2022/09/08 06:36:02;;;;;;;;;7.00;5.50;;;;;18.46;75.09;100744.06;5090955;28;8805;-66
2022/09/08 06:38:39;;;;;;;;;8.50;5.25;;;;;18.47;75.29;100739.44;5123651;27;9672;-67
2022/09/08 06:41:20;;;;;;;;;5.00;5.00;;;;;18.47;75.26;100742.16;5090907;28;8833;-67
2022/09/08 06:44:09;;;;;;;;;3.50;3.50;;;;;18.49;75.18;100742.75;5072108;28;8812;-67
2022/09/08 06:46:39;;;;;;;;;3.50;3.50;;;;;18.52;75.20;100750.44;5070460;28;8819;-66
2022/09/08 06:49:09;;;;;;;;;4.00;4.00;;;;;18.51;75.45;100741.44;5070916;28;8880;-66
2022/09/08 06:51:42;;;;;;;;;5.00;5.00;;;;;18.50;75.35;100747.94;5090942;28;8890;-66
2022/09/08 06:54:08;;;;;;;;;5.75;5.00;;;;;18.50;75.46;100750.66;5090878;28;9700;-65
2022/09/08 06:57:02;;;;;;;;;8.50;8.50;;;;;18.48;75.29;100746.56;5090484;28;8843;-67
2022/09/08 07:00:02;;;;;;;;;8.50;7.00;;;;;18.35;75.43;100744.16;5090897;28;8804;-66
2022/09/08 07:02:43;;;;;;;;;6.75;5.50;;;;;18.25;75.88;100740.19;5085674;28;8861;-66
2022/09/08 07:05:18;;;;;;;;;3.00;3.00;;;;;18.16;75.90;100744.41;5070515;28;8950;-66
2022/09/08 07:08:03;;;;;;;;;4.50;4.00;;;;;18.10;75.94;100734.47;5070370;28;8902;-66
2022/09/08 07:10:44;;;;;;;;;2.75;2.00;;;;;18.09;75.97;100738.28;5070869;28;8850;-65
2022/09/08 07:13:32;;;;;;;;;2.00;2.00;;;;;18.06;75.86;100746.94;5070407;28;8845;-66
2022/09/08 07:16:09;;;;;;;;;1.75;1.75;;;;;18.00;75.82;100742.50;5070481;28;8829;-65
2022/09/08 07:18:49;;;;;;;;;0.00;0.00;;;;;17.91;75.69;100736.63;5070242;28;8824;-66
2022/09/08 07:21:54;;;;;;;;;0.00;0.00;;;;;17.91;75.56;100735.81;5070138;28;8820;-66
2022/09/08 07:24:27;;;;;;;;;0.00;0.00;;;;;17.95;75.70;100743.25;5059525;28;8872;-66
2022/09/08 07:26:59;;;;;;;;;0.00;0.00;;;;;17.98;75.35;100740.00;5070040;28;8833;-66
2022/09/08 07:29:33;;;;;;;;;0.00;0.00;;;;;17.97;74.88;100741.06;5070324;28;8825;-66
2022/09/08 07:32:01;;;;;;;;;0.50;0.50;;;;;17.97;74.78;100738.34;5082390;28;9552;-65
2022/09/08 07:34:33;;;;;;;;;0.00;0.00;;;;;17.98;74.52;100736.44;5090384;28;8824;-65
2022/09/08 07:37:14;;;;;;;;;0.00;0.00;;;;;17.96;74.88;100733.16;5090020;28;8832;-66
2022/09/08 07:39:48;;;;;;;;;0.00;0.00;;;;;17.98;74.61;100737.28;5090095;28;8809;-66
2022/09/08 07:42:16;;;;;;;;;0.00;0.00;;;;;18.00;74.76;100723.44;5090006;28;8840;-67
2022/09/08 07:44:54;;;;;;;;;0.00;0.00;;;;;18.01;74.96;100725.06;5088664;28;8937;-67
2022/09/08 07:47:44;;;;;;;;;0.00;0.00;;;;;18.04;74.60;100730.84;5089938;28;8829;-66
2022/09/08 07:53:53;;;;;;;;;1.50;0.00;;;;;18.03;74.74;100723.75;5069722;28;8805;-67
2022/09/08 07:56:52;;;;;;;;;1.00;1.00;;;;;18.03;75.04;100728.41;5069813;28;9730;-66
2022/09/08 07:59:56;;;;;;;;;0.00;0.00;;;;;18.08;75.12;100741.28;5065803;28;8824;-67
2022/09/08 08:02:42;;;;;;;;;1.25;1.00;;;;;18.06;75.06;100732.50;5069805;28;8866;-67
2022/09/08 08:05:29;;;;;;;;;1.00;1.00;;;;;18.09;75.38;100749.19;5069707;28;8816;-67
2022/09/08 08:08:26;;;;;;;;;2.00;2.00;;;;;18.12;75.52;100743.25;5070519;28;8823;-67
2022/09/08 08:11:00;;;;;;;;;1.00;1.00;;;;;18.15;75.70;100744.63;5073935;28;8850;-67
2022/09/08 08:13:53;;;;;;;;;1.25;1.25;;;;;18.16;75.31;100749.03;5075761;28;8852;-66
2022/09/08 08:16:52;;;;;;;;;2.50;2.50;;;;;18.19;75.65;100752.09;5093677;28;8840;-67
2022/09/08 08:19:34;;;;;;;;;1.50;1.50;;;;;18.20;75.55;100759.19;5092747;28;8837;-67
2022/09/08 08:22:21;;;;;;;;;4.75;3.00;;;;;18.21;75.85;100760.84;5093638;28;9617;-67
2022/09/08 08:25:16;;;;;;;;;9.00;4.75;;;;;18.23;75.82;100755.97;5093704;28;8821;-67
2022/09/08 08:28:06;;;;;;;;;7.50;6.75;;;;;18.22;76.05;100765.19;5091952;28;8826;-67
2022/09/08 08:31:02;;;;;;;;;8.75;6.50;;;;;18.21;75.82;100768.19;5093735;28;9403;-68
2022/09/08 08:33:33;;;;;;;;;8.75;8.75;;;;;18.19;75.91;100770.31;5093589;28;8816;-67
2022/09/08 08:36:05;;;;;;;;;8.50;8.00;;;;;18.18;75.91;100771.41;5093526;28;8856;-66
2022/09/08 08:38:41;;;;;;;;;7.75;6.50;;;;;18.18;76.01;100764.03;5093147;28;8832;-66
2022/09/08 08:41:40;;;;;;;;;9.50;8.25;;;;;18.19;76.02;100776.63;5093779;28;8817;-66
2022/09/08 08:44:45;;;;;;;;;13.50;9.75;;;;;18.21;76.17;100785.34;5073910;28;8819;-67
2022/09/08 08:47:38;;;;;;;;;12.50;10.75;;;;;18.20;75.68;100778.25;5072922;28;8830;-66
2022/09/08 08:50:35;;;;;;;;;9.75;9.25;;;;;18.19;75.90;100773.91;5072930;28;8846;-66
2022/09/08 08:53:42;;;;;;;;;16.00;15.00;;;;;18.18;76.25;100779.56;5072596;28;8893;-66
2022/09/08 08:56:38;;;;;;;;;10.00;9.50;;;;;18.25;76.65;100782.97;5072549;28;9117;-66
2022/09/08 08:59:23;;;;;;;;;15.00;13.25;;;;;18.30;76.41;100783.03;5072929;28;8823;-66
2022/09/08 09:02:07;;;;;;;;;11.00;11.00;;;;;18.35;76.40;100772.25;5072886;28;8827;-65
2022/09/08 09:05:10;;;;;;;;;18.50;17.50;;;;;18.38;76.13;100779.09;5071223;28;8962;-66
2022/09/08 09:08:08;;;;;;;;;15.67;15.67;;;;;18.38;76.53;100770.91;5071879;28;8881;-67
2022/09/08 09:11:18;;;;;;;;;17.33;16.33;;;;;18.42;76.43;100770.16;5052544;28;8904;-67
2022/09/08 09:14:05;;;;;;;;;22.33;21.00;;;;;18.41;76.09;100762.25;5019824;28;9633;-67
2022/09/08 09:17:05;;;;;;;;;23.67;22.67;;;;;18.47;75.88;100767.53;5052331;28;8983;-67
2022/09/08 09:20:11;;;;;;;;;17.00;16.00;;;;;18.49;75.55;100757.19;5052374;28;9021;-66
2022/09/08 09:23:05;;;;;;;;;12.00;7.50;;;;;18.61;75.12;100757.13;5058331;28;8977;-67
2022/09/08 09:25:35;;;;;;;;;14.50;13.50;;;;;18.63;74.32;100754.13;5092394;28;8828;-66
2022/09/08 09:28:20;;;;;;;;;10.00;9.50;;;;;18.62;73.83;100755.22;5092235;28;9564;-66
2022/09/08 09:31:17;;;;;;;;;12.50;11.00;;;;;18.65;73.10;100755.53;5092331;28;9268;-66
2022/09/08 09:34:12;;;;;;;;;15.75;15.75;;;;;18.57;71.98;100752.41;5092316;28;8804;-66
2022/09/08 09:36:41;;;;;;;;;11.50;11.50;;;;;18.62;71.85;100745.13;5092030;28;8839;-66
2022/09/08 09:39:45;;;;;;;;;11.75;10.75;;;;;18.66;71.93;100748.19;5074966;28;8850;-66
2022/09/08 09:42:37;;;;;;;;;13.33;12.33;;;;;18.75;72.09;100746.69;5071850;28;8835;-67
2022/09/08 09:45:54;;;;;;;;;12.25;11.75;;;;;18.84;72.22;100747.94;5071894;28;8912;-66
2022/09/08 09:48:51;;;;;;;;;15.50;13.25;;;;;18.74;71.44;100745.88;5045200;28;8823;-66
2022/09/08 09:51:35;;;;;;;;;13.25;11.75;;;;;18.64;71.65;100742.16;5071602;28;8812;-67
2022/09/08 09:54:26;;;;;;;;;12.25;11.75;;;;;18.62;71.55;100742.41;5071645;28;8812;-66
2022/09/08 09:57:30;;;;;;;;;14.00;14.00;;;;;18.62;71.35;100745.13;5071710;28;8819;-66
2022/09/08 10:00:09;;;;;;;;;12.25;11.25;;;;;18.69;71.28;100742.22;5071534;28;8835;-67
2022/09/08 10:03:15;;;;;;;;;12.00;12.00;;;;;18.71;70.89;100751.00;5089424;28;8946;-66
2022/09/08 10:06:05;;;;;;;;;10.00;10.00;;;;;18.74;71.08;100740.44;5090058;28;8832;-65
2022/09/08 10:08:57;;;;;;;;;17.25;13.50;;;;;18.74;71.01;100747.78;5091220;28;8971;-63
2022/09/08 10:11:55;;;;;;;;;13.75;12.75;;;;;18.71;70.83;100751.81;5091511;28;8817;-67
2022/09/08 10:14:34;;;;;;;;;8.50;8.50;;;;;18.76;71.31;100751.09;5091440;28;9652;-65
2022/09/08 10:17:13;;;;;;;;;10.75;9.25;;;;;18.80;71.02;100752.25;5085133;28;8862;-66
2022/09/08 10:19:58;;;;;;;;;12.00;11.50;;;;;18.90;71.01;100748.81;5071304;28;8843;-65
2022/09/08 10:23:01;;;;;;;;;10.00;10.00;;;;;19.06;71.23;100753.41;5071113;28;9540;-65
2022/09/08 10:25:46;;;;;;;;;10.00;8.25;;;;;19.10;70.33;100743.66;5071233;28;8828;-66
2022/09/08 10:28:21;;;;;;;;;6.75;6.75;;;;;19.19;70.22;100754.94;5076875;28;8844;-67
2022/09/08 10:31:07;;;;;;;;;13.75;13.75;;;;;19.16;69.40;100748.09;5070377;28;8839;-66
2022/09/08 10:34:01;;;;;;;;;9.25;9.00;;;;;19.09;69.10;100750.19;5071024;28;8837;-66
2022/09/08 10:36:46;;;;;;;;;12.50;12.50;;;;;19.06;68.94;100750.69;5070651;28;8842;-66
2022/09/08 10:39:50;;;;;;;;;9.00;8.75;;;;;19.09;68.88;100749.38;5070267;28;8854;-66
2022/09/08 10:42:42;;;;;;;;;13.00;11.00;;;;;19.09;68.37;100739.28;5070211;28;8842;-68
2022/09/08 10:45:27;;;;;;;;;6.25;6.25;;;;;19.18;68.12;100745.09;5070575;28;8859;-66
2022/09/08 10:48:11;;;;;;;;;8.50;7.50;;;;;19.15;67.60;100746.44;5070406;28;9582;-66
2022/09/08 10:51:12;;;;;;;;;9.75;9.75;;;;;19.14;67.69;100746.69;5070641;28;8951;-66
2022/09/08 10:54:17;;;;;;;;;11.00;11.00;;;;;19.03;67.60;100743.81;5068022;28;8953;-66
2022/09/08 10:56:47;;;;;;;;;15.25;14.00;;;;;19.07;68.00;100741.41;5046688;28;9005;-67
2022/09/08 10:59:49;;;;;;;;;7.75;7.75;;;;;19.17;67.64;100733.38;5069748;28;8827;-66
2022/09/08 11:02:33;;;;;;;;;8.00;8.00;;;;;19.34;67.51;100732.47;5070135;28;8869;-66
2022/09/08 11:05:24;;;;;;;;;8.25;8.25;;;;;19.40;67.04;100740.44;5069618;28;8811;-65
2022/09/08 11:08:16;;;;;;;;;6.50;6.50;;;;;19.55;66.85;100737.09;5070044;28;8851;-66
2022/09/08 11:11:11;;;;;;;;;6.00;5.00;;;;;19.57;66.09;100734.09;5070468;28;8831;-65
2022/09/08 11:13:59;;;;;;;;;5.75;5.75;;;;;19.67;65.87;100731.50;5090565;28;8851;-65
2022/09/08 11:16:45;;;;;;;;;5.75;5.25;;;;;19.76;65.49;100724.50;5090203;28;8847;-65
2022/09/08 11:19:33;;;;;;;;;5.00;5.00;;;;;19.96;65.67;100734.78;5090408;28;8812;-65
2022/09/08 11:22:10;;;;;;;;;5.75;4.50;;;;;20.07;64.74;100720.13;5090285;28;9549;-65
2022/09/08 11:24:52;;;;;;;;;9.25;8.75;;;;;20.12;64.37;100727.56;5089039;28;8850;-65
2022/09/08 11:27:40;;;;;;;;;3.00;3.00;;;;;20.17;63.91;100731.16;5090035;28;8816;-66
2022/09/08 11:30:18;;;;;;;;;8.50;8.50;;;;;20.05;63.20;100732.41;5089259;28;8816;-65
2022/09/08 11:33:00;;;;;;;;;4.50;3.50;;;;;20.20;63.29;100740.75;5090342;28;9553;-66
2022/09/08 11:35:47;;;;;;;;;7.00;7.00;;;;;20.16;62.90;100747.81;5090133;28;8828;-65
2022/09/08 11:38:49;;;;;;;;;5.00;5.00;;;;;20.05;62.38;100730.50;5088330;28;9575;-65
2022/09/08 11:41:30;;;;;;;;;7.50;6.50;;;;;19.98;62.38;100735.38;5075426;28;8839;-65
2022/09/08 11:44:15;;;;;;;;;8.00;7.75;;;;;19.93;62.84;100738.03;5072608;28;8853;-66
2022/09/08 11:47:08;;;;;;;;;7.50;7.50;;;;;19.93;62.70;100735.31;5073865;28;8855;-66
2022/09/08 11:49:41;;;;;;;;;6.00;6.00;;;;;19.88;62.35;100735.25;5074269;28;9583;-65
2022/09/08 11:53:06;;;;;;;;;6.00;6.00;;;;;20.00;62.63;100730.44;5074179;28;8855;-65
2022/09/08 11:56:33;;;;;;;;;9.50;8.75;;;;;20.08;62.13;100732.72;5073952;28;8825;-66
2022/09/08 11:59:13;;;;;;;;;7.50;7.50;;;;;20.14;61.65;100719.94;5073823;28;8820;-66
2022/09/08 12:02:01;;;;;;;;;5.75;4.50;;;;;20.20;61.53;100722.44;5073899;28;8812;-66
2022/09/08 12:04:59;;;;;;;;;3.50;3.50;;;;;20.30;61.26;100731.81;5074009;28;8828;-67
2022/09/08 12:08:06;;;;;;;;;7.25;7.25;;;;;20.20;59.55;100729.81;5053996;28;8850;-66
2022/09/08 12:10:54;;;;;;;;;6.25;5.75;;;;;20.23;60.18;100723.81;5054754;28;8838;-65
2022/09/08 12:13:46;;;;;;;;;3.50;3.50;;;;;20.34;60.50;100722.00;5055080;28;8852;-65
2022/09/08 12:16:46;;;;;;;;;7.50;5.00;;;;;20.39;59.87;100719.31;5054549;28;9601;-68
2022/09/08 12:19:45;;;;;;;;;6.25;6.25;;;;;20.50;59.65;100712.84;5067872;28;8835;-66
2022/09/08 12:22:47;;;;;;;;;5.00;5.00;;;;;20.60;59.05;100718.38;5074576;28;9560;-65
2022/09/08 12:25:47;;;;;;;;;4.00;4.00;;;;;20.71;58.34;100709.16;5072468;28;8859;-65
2022/09/08 12:29:00;;;;;;;;;5.00;5.00;;;;;20.79;58.40;100716.03;5089564;28;9524;-66
2022/09/08 12:31:38;;;;;;;;;4.50;4.50;;;;;20.78;56.84;100716.28;5074253;28;8842;-65
2022/09/08 12:34:22;;;;;;;;;5.75;5.75;;;;;20.83;56.43;100713.59;5074111;28;8927;-66